createdAt,value
2023-04-02T00:00:10.562Z,17.30
2023-04-02T00:03:00.447Z,16.50
2023-04-02T00:05:34.664Z,16.70
2023-04-02T00:08:10.090Z,15.30
2023-04-02T00:10:39.965Z,15.87
2023-04-02T00:13:18.674Z,17.37
2023-04-02T00:15:49.072Z,17.17
2023-04-02T00:18:21.654Z,18.53
2023-04-02T00:20:54.642Z,17.90
2023-04-02T00:23:23.094Z,18.00
2023-04-02T00:25:49.977Z,16.70
2023-04-02T00:28:22.734Z,17.93
2023-04-02T00:30:59.317Z,17.10
2023-04-02T00:33:28.576Z,17.50
2023-04-02T00:35:56.527Z,16.07
2023-04-02T00:38:29.883Z,17.17
2023-04-02T00:40:59.303Z,15.17
2023-04-02T00:43:28.672Z,15.87
2023-04-02T00:45:58.083Z,16.20
2023-04-02T00:48:44.709Z,15.63
2023-04-02T00:51:26.054Z,16.10
2023-04-02T00:53:55.492Z,15.70
2023-04-02T00:56:27.801Z,16.67
2023-04-02T00:58:57.560Z,15.50
2023-04-02T01:01:29.419Z,16.20
2023-04-02T01:04:02.629Z,16.23
2023-04-02T01:06:34.213Z,15.27
2023-04-02T01:09:21.244Z,15.30
2023-04-02T01:12:06.494Z,15.83
2023-04-02T01:14:48.928Z,15.03
2023-04-02T01:17:36.595Z,15.37
2023-04-02T01:20:30.984Z,14.40
2023-04-02T01:23:09.792Z,14.23
2023-04-02T01:25:43.798Z,14.27
2023-04-02T01:28:14.834Z,14.50
2023-04-02T01:30:47.092Z,15.37
2023-04-02T01:33:14.012Z,16.07
2023-04-02T01:35:46.047Z,15.10
2023-04-02T01:38:23.224Z,14.87
2023-04-02T01:41:03.348Z,16.20
2023-04-02T01:43:46.012Z,15.53
2023-04-02T01:46:27.947Z,15.70
2023-04-02T01:48:56.644Z,16.17
2023-04-02T01:51:31.630Z,14.37
2023-04-02T01:54:02.116Z,14.83
2023-04-02T01:56:30.504Z,15.40
2023-04-02T01:58:58.741Z,15.30
2023-04-02T02:01:34.996Z,14.53
2023-04-02T02:04:02.739Z,15.60
2023-04-02T02:06:29.886Z,15.40
2023-04-02T02:09:05.688Z,16.33
2023-04-02T02:11:33.796Z,16.50
2023-04-02T02:14:18.706Z,15.40
2023-04-02T02:16:47.289Z,14.30
2023-04-02T02:19:26.607Z,14.50
2023-04-02T02:22:39.882Z,15.50
2023-04-02T02:25:13.782Z,14.03
2023-04-02T02:28:02.733Z,15.30
2023-04-02T02:30:43.757Z,15.10
2023-04-02T02:33:28.997Z,14.70
2023-04-02T02:36:14.582Z,14.17
2023-04-02T02:38:50.411Z,15.23
2023-04-02T02:41:24.658Z,15.03
2023-04-02T02:44:12.323Z,15.20
2023-04-02T02:46:52.321Z,14.30
2023-04-02T02:49:26.073Z,14.07
2023-04-02T02:52:16.714Z,15.00
2023-04-02T02:55:11.813Z,16.13
2023-04-02T02:57:45.164Z,14.47
2023-04-02T03:00:13.203Z,14.10
2023-04-02T03:02:42.440Z,13.10
2023-04-02T03:05:16.023Z,13.33
2023-04-02T03:07:43.515Z,11.87
2023-04-02T03:10:32.596Z,12.23
2023-04-02T03:13:13.137Z,12.43
2023-04-02T03:16:00.394Z,12.33
2023-04-02T03:18:32.869Z,13.13
2023-04-02T03:21:13.837Z,12.37
2023-04-02T03:23:44.393Z,10.93
2023-04-02T03:26:46.574Z,10.80
2023-04-02T03:29:27.047Z,10.67
2023-04-02T03:32:16.550Z,11.43
2023-04-02T03:34:49.400Z,10.23
2023-04-02T03:37:30.620Z,10.33
2023-04-02T03:40:06.868Z,10.30
2023-04-02T03:42:45.966Z,9.63
2023-04-02T03:45:27.242Z,10.10
2023-04-02T03:48:15.806Z,9.53
2023-04-02T03:50:45.357Z,8.93
2023-04-02T03:53:12.660Z,8.90
2023-04-02T03:55:41.919Z,8.07
2023-04-02T03:58:37.123Z,8.57
2023-04-02T04:01:23.964Z,7.87
2023-04-02T04:03:57.472Z,7.63
2023-04-02T04:06:30.589Z,6.90
2023-04-02T04:09:09.299Z,6.83
2023-04-02T04:11:39.813Z,6.07
2023-04-02T04:14:30.004Z,5.83
2023-04-02T04:17:09.435Z,6.00
2023-04-02T04:19:46.158Z,5.80
2023-04-02T04:22:30.611Z,5.93
2023-04-02T04:24:59.091Z,6.13
2023-04-02T04:27:34.737Z,5.80
2023-04-02T04:30:27.920Z,5.73
2023-04-02T04:33:04.195Z,5.73
2023-04-02T04:35:39.019Z,5.90
2023-04-02T04:38:44.353Z,5.53
2023-04-02T04:41:24.378Z,5.30
2023-04-02T04:44:22.151Z,5.70
2023-04-02T04:47:02.316Z,5.53
2023-04-02T04:49:53.466Z,5.20
2023-04-02T04:52:29.330Z,4.67
2023-04-02T04:54:58.294Z,4.63
2023-04-02T04:57:35.897Z,5.43
2023-04-02T05:00:34.429Z,4.40
2023-04-02T05:03:09.226Z,5.10
2023-04-02T05:05:39.915Z,4.50
2023-04-02T05:08:27.055Z,4.30
2023-04-02T05:11:01.161Z,4.17
2023-04-02T05:13:41.173Z,4.37
2023-04-02T05:16:23.428Z,4.23
2023-04-02T05:19:04.517Z,4.00
2023-04-02T05:21:51.829Z,4.50
2023-04-02T05:24:33.013Z,4.07
2023-04-02T05:27:12.539Z,4.20
2023-04-02T05:29:41.668Z,4.37
2023-04-02T05:32:19.735Z,4.27
2023-04-02T05:34:51.614Z,4.37
2023-04-02T05:37:23.513Z,4.13
2023-04-02T05:40:00.666Z,4.63
2023-04-02T05:42:35.601Z,4.97
2023-04-02T05:45:08.306Z,4.97
2023-04-02T05:47:41.096Z,5.07
2023-04-02T05:50:08.436Z,4.20
2023-04-02T05:52:41.833Z,5.00
2023-04-02T05:55:11.475Z,4.60
2023-04-02T06:00:40.206Z,4.50
2023-04-02T06:03:29.846Z,5.07
2023-04-02T06:06:03.304Z,4.60
2023-04-02T06:08:43.675Z,5.47
2023-04-02T06:11:16.525Z,5.53
2023-04-02T06:13:43.323Z,5.50
2023-04-02T06:16:15.636Z,5.90
2023-04-02T06:18:43.619Z,5.20
2023-04-02T06:21:15.431Z,5.47
2023-04-02T06:23:50.074Z,5.90
2023-04-02T06:26:27.601Z,6.20
2023-04-02T06:29:04.209Z,6.00
2023-04-02T06:31:54.032Z,6.57
2023-04-02T06:34:24.585Z,6.50
2023-04-02T06:36:55.767Z,6.40
2023-04-02T06:39:24.603Z,5.83
2023-04-02T06:42:07.620Z,7.70
2023-04-02T06:44:38.386Z,6.17
2023-04-02T06:47:05.907Z,5.80
2023-04-02T06:49:41.092Z,6.10
2023-04-02T06:52:17.005Z,6.13
2023-04-02T06:54:44.070Z,6.33
2023-04-02T06:57:13.242Z,5.80
2023-04-02T06:59:40.489Z,5.70
2023-04-02T07:02:29.740Z,6.30
2023-04-02T07:05:02.901Z,5.93
2023-04-02T07:07:30.010Z,6.43
2023-04-02T07:09:57.729Z,4.87
2023-04-02T07:12:25.797Z,5.00
2023-04-02T07:14:52.959Z,5.20
2023-04-02T07:17:21.350Z,5.70
2023-04-02T07:19:51.742Z,5.53
2023-04-02T07:22:19.656Z,4.80
2023-04-02T07:24:46.580Z,4.73
2023-04-02T07:27:14.612Z,4.53
2023-04-02T07:29:44.856Z,4.53
2023-04-02T07:32:13.359Z,4.53
2023-04-02T07:34:41.566Z,4.03
2023-04-02T07:37:13.089Z,4.10
2023-04-02T07:39:40.776Z,4.10
2023-04-02T07:42:08.049Z,4.87
2023-04-02T07:44:35.171Z,5.10
2023-04-02T07:47:02.189Z,5.03
2023-04-02T07:49:29.014Z,4.37
2023-04-02T07:51:55.941Z,4.40
2023-04-02T07:54:22.645Z,4.63
2023-04-02T07:56:55.465Z,4.60
2023-04-02T07:59:22.428Z,4.13
2023-04-02T08:01:49.369Z,4.67
2023-04-02T08:04:19.434Z,3.87
2023-04-02T08:06:47.487Z,3.67
2023-04-02T08:09:15.775Z,3.27
2023-04-02T08:11:42.781Z,3.40
2023-04-02T08:14:10.047Z,3.17
2023-04-02T08:16:54.412Z,3.43
2023-04-02T08:19:22.165Z,3.53
2023-04-02T08:21:51.600Z,3.43
2023-04-02T08:24:19.367Z,3.27
2023-04-02T08:26:47.627Z,3.20
2023-04-02T08:29:14.511Z,3.30
2023-04-02T08:31:41.749Z,3.00
2023-04-02T08:34:09.226Z,2.97
2023-04-02T08:36:41.378Z,2.73
2023-04-02T08:39:11.687Z,2.80
2023-04-02T08:42:02.952Z,2.77
2023-04-02T08:44:44.612Z,2.47
2023-04-02T08:47:13.572Z,2.73
2023-04-02T08:49:44.753Z,2.70
2023-04-02T08:52:36.811Z,2.60
2023-04-02T08:55:12.562Z,3.00
2023-04-02T08:57:51.628Z,3.07
2023-04-02T09:00:39.180Z,3.20
2023-04-02T09:03:13.338Z,2.50
2023-04-02T09:05:43.538Z,2.50
2023-04-02T09:08:20.957Z,2.30
2023-04-02T09:11:19.196Z,2.20
2023-04-02T09:13:48.746Z,2.07
2023-04-02T09:16:22.570Z,2.27
2023-04-02T09:18:52.996Z,2.33
2023-04-02T09:21:34.547Z,2.20
2023-04-02T09:24:02.860Z,2.63
2023-04-02T09:26:32.896Z,2.20
2023-04-02T09:29:16.230Z,2.27
2023-04-02T09:31:55.581Z,2.30
2023-04-02T09:34:34.347Z,2.10
2023-04-02T09:37:18.272Z,2.40
2023-04-02T09:39:45.514Z,2.70
2023-04-02T09:42:36.194Z,2.70
2023-04-02T09:45:19.809Z,2.30
2023-04-02T09:47:47.212Z,2.77
2023-04-02T09:50:20.863Z,2.47
2023-04-02T09:52:49.200Z,2.37
2023-04-02T09:55:16.127Z,2.43
2023-04-02T09:57:43.266Z,2.53
2023-04-02T10:00:31.446Z,2.37
2023-04-02T10:03:25.741Z,2.03
2023-04-02T10:06:11.997Z,2.13
2023-04-02T10:08:42.331Z,2.00
2023-04-02T10:11:20.030Z,2.00
2023-04-02T10:14:04.040Z,2.00
2023-04-02T10:16:40.724Z,2.47
2023-04-02T10:19:25.072Z,1.90
2023-04-02T10:21:53.964Z,1.80
2023-04-02T10:24:21.155Z,1.93
2023-04-02T10:27:06.810Z,2.13
2023-04-02T10:30:02.384Z,1.90
2023-04-02T10:32:36.837Z,1.97
2023-04-02T10:35:21.734Z,2.10
2023-04-02T10:38:19.133Z,2.20
2023-04-02T10:41:09.574Z,2.60
2023-04-02T10:43:45.331Z,1.87
2023-04-02T10:46:22.418Z,2.13
2023-04-02T10:49:13.150Z,1.90
2023-04-02T10:51:58.630Z,2.50
2023-04-02T10:54:47.920Z,1.90
2023-04-02T10:57:35.693Z,2.00
2023-04-02T11:00:11.896Z,2.27
2023-04-02T11:03:02.378Z,2.70
2023-04-02T11:05:44.293Z,2.00
2023-04-02T11:08:40.394Z,2.50
2023-04-02T11:11:23.415Z,2.40
2023-04-02T11:14:07.102Z,2.33
2023-04-02T11:16:35.565Z,2.40
2023-04-02T11:19:16.488Z,2.10
2023-04-02T11:21:58.617Z,3.03
2023-04-02T11:24:37.400Z,2.20
2023-04-02T11:27:11.741Z,2.40
2023-04-02T11:29:48.899Z,2.40
2023-04-02T11:32:29.758Z,2.33
2023-04-02T11:35:06.419Z,2.13
2023-04-02T11:37:46.161Z,2.23
2023-04-02T11:40:15.592Z,2.13
2023-04-02T11:42:49.235Z,2.10
2023-04-02T11:45:26.270Z,2.20
2023-04-02T11:48:03.966Z,2.03
2023-04-02T11:50:37.347Z,1.90
2023-04-02T11:53:16.841Z,2.10
2023-04-02T11:55:44.991Z,1.87
2023-04-02T11:58:49.552Z,2.23
2023-04-02T12:01:22.452Z,2.43
2023-04-02T12:03:55.353Z,2.10
2023-04-02T12:06:40.053Z,2.20
2023-04-02T12:09:30.197Z,1.90
2023-04-02T12:12:00.660Z,1.93
2023-04-02T12:14:37.015Z,2.03
2023-04-02T12:17:31.894Z,1.70
2023-04-02T12:20:20.619Z,2.20
2023-04-02T12:22:51.115Z,2.47
2023-04-02T12:25:21.757Z,2.80
2023-04-02T12:28:18.540Z,2.00
2023-04-02T12:30:47.309Z,2.40
2023-04-02T12:33:20.438Z,2.23
2023-04-02T12:35:49.069Z,1.90
2023-04-02T12:38:23.044Z,2.10
2023-04-02T12:40:58.220Z,1.80
2023-04-02T12:43:34.635Z,2.00
2023-04-02T12:46:07.905Z,2.00
2023-04-02T12:48:36.043Z,2.30
2023-04-02T12:51:04.228Z,2.00
2023-04-02T12:53:38.740Z,1.73
2023-04-02T12:56:08.216Z,2.77
2023-04-02T12:58:41.268Z,1.90
2023-04-02T13:01:12.981Z,2.20
2023-04-02T13:03:39.938Z,2.10
2023-04-02T13:06:24.417Z,2.30
2023-04-02T13:08:51.672Z,2.17
2023-04-02T13:11:20.326Z,2.37
2023-04-02T13:13:48.725Z,2.07
2023-04-02T13:16:18.317Z,1.87
2023-04-02T13:18:47.614Z,2.03
2023-04-02T13:21:19.093Z,1.70
2023-04-02T13:23:46.585Z,2.00
2023-04-02T13:26:20.454Z,2.03
2023-04-02T13:29:02.455Z,1.70
2023-04-02T13:31:31.121Z,1.87
2023-04-02T13:33:58.445Z,1.70
2023-04-02T13:36:25.958Z,2.17
2023-04-02T13:38:52.846Z,1.90
2023-04-02T13:41:24.001Z,2.07
2023-04-02T13:43:52.087Z,1.70
2023-04-02T13:46:26.611Z,2.63
2023-04-02T13:48:55.703Z,1.97
2023-04-02T13:51:36.272Z,1.90
2023-04-02T13:54:05.094Z,1.80
2023-04-02T13:56:32.258Z,2.10
2023-04-02T13:58:59.530Z,2.03
2023-04-02T14:01:27.258Z,1.80
2023-04-02T14:03:56.332Z,2.00
2023-04-02T14:07:05.103Z,1.90
2023-04-02T14:10:00.975Z,1.90
2023-04-02T14:12:58.277Z,2.00
2023-04-02T14:15:40.483Z,1.53
2023-04-02T14:18:41.287Z,2.10
2023-04-02T14:21:26.642Z,1.60
2023-04-02T14:24:14.864Z,1.73
2023-04-02T14:27:16.625Z,1.97
2023-04-02T14:29:58.341Z,2.00
2023-04-02T14:32:39.376Z,1.80
2023-04-02T14:35:17.203Z,2.40
2023-04-02T14:38:21.649Z,1.83
2023-04-02T14:41:04.006Z,2.00
2023-04-02T14:43:50.723Z,2.10
2023-04-02T14:46:17.671Z,1.40
2023-04-02T14:49:17.296Z,2.17
2023-04-02T14:51:45.762Z,1.70
2023-04-02T14:54:21.277Z,2.03
2023-04-02T14:56:52.955Z,2.10
2023-04-02T14:59:35.598Z,2.17
2023-04-02T15:02:23.936Z,2.30
2023-04-02T15:05:13.933Z,1.83
2023-04-02T15:07:48.807Z,1.80
2023-04-02T15:10:36.881Z,1.90
2023-04-02T15:13:11.717Z,1.80
2023-04-02T15:15:56.640Z,2.47
2023-04-02T15:18:25.429Z,1.80
2023-04-02T15:21:10.331Z,2.10
2023-04-02T15:23:45.997Z,2.10
2023-04-02T15:26:20.044Z,1.90
2023-04-02T15:28:52.946Z,2.40
2023-04-02T15:31:23.241Z,2.13
2023-04-02T15:34:04.904Z,2.20
2023-04-02T15:36:35.363Z,2.30
2023-04-02T15:39:07.803Z,2.23
2023-04-02T15:41:59.767Z,2.23
2023-04-02T15:44:26.579Z,2.00
2023-04-02T15:47:22.848Z,1.63
2023-04-02T15:50:12.953Z,1.87
2023-04-02T15:52:58.843Z,2.00
2023-04-02T15:56:15.316Z,1.90
2023-04-02T15:59:02.556Z,2.10
2023-04-02T16:01:41.099Z,1.90
2023-04-02T16:04:19.517Z,2.20
2023-04-02T16:07:09.376Z,1.97
2023-04-02T16:09:37.333Z,2.20
2023-04-02T16:12:19.027Z,2.10
2023-04-02T16:14:47.949Z,2.17
2023-04-02T16:17:34.857Z,2.30
2023-04-02T16:20:26.087Z,3.03
2023-04-02T16:23:11.634Z,2.10
2023-04-02T16:25:44.726Z,2.93
2023-04-02T16:28:31.250Z,2.20
2023-04-02T16:31:19.926Z,2.20
2023-04-02T16:33:59.673Z,2.03
2023-04-02T16:36:50.124Z,2.00
2023-04-02T16:39:34.959Z,1.87
2023-04-02T16:42:28.483Z,1.93
2023-04-02T16:45:22.453Z,1.90
2023-04-02T16:48:26.195Z,2.27
2023-04-02T16:51:28.265Z,2.40
2023-04-02T16:54:21.467Z,2.00
2023-04-02T16:57:09.409Z,2.40
2023-04-02T16:59:53.284Z,2.00
2023-04-02T17:02:26.492Z,2.00
2023-04-02T17:05:03.078Z,2.40
2023-04-02T17:07:36.511Z,2.50
2023-04-02T17:10:19.024Z,2.30
2023-04-02T17:12:51.888Z,2.43
2023-04-02T17:15:28.173Z,2.10
2023-04-02T17:18:00.924Z,2.50
2023-04-02T17:20:28.626Z,3.00
2023-04-02T17:22:56.419Z,2.37
2023-04-02T17:25:31.513Z,2.17
2023-04-02T17:27:58.415Z,2.23
2023-04-02T17:30:46.981Z,2.40
2023-04-02T17:33:19.030Z,2.20
2023-04-02T17:36:12.219Z,2.00
2023-04-02T17:39:03.627Z,2.20
2023-04-02T17:42:00.308Z,2.40
2023-04-02T17:44:32.610Z,2.20
2023-04-02T17:47:21.313Z,2.10
2023-04-02T17:50:09.291Z,2.20
2023-04-02T17:52:45.004Z,2.30
2023-04-02T17:55:18.796Z,2.10
2023-04-02T17:58:13.293Z,2.27
2023-04-02T18:00:55.874Z,2.30
2023-04-02T18:03:49.292Z,2.50
2023-04-02T18:06:39.962Z,2.90
2023-04-02T18:09:19.338Z,3.90
2023-04-02T18:12:02.748Z,3.13
2023-04-02T18:14:38.568Z,3.30
2023-04-02T18:17:27.105Z,3.33
2023-04-02T18:20:01.175Z,3.57
2023-04-02T18:22:56.046Z,4.10
2023-04-02T18:25:41.397Z,2.97
2023-04-02T18:28:26.072Z,3.87
2023-04-02T18:31:02.727Z,3.93
2023-04-02T18:33:56.861Z,3.10
2023-04-02T18:36:48.404Z,2.30
2023-04-02T18:39:25.957Z,2.40
2023-04-02T18:42:04.606Z,2.10
2023-04-02T18:45:11.156Z,2.70
2023-04-02T18:47:54.761Z,2.70
2023-04-02T18:50:28.996Z,2.50
2023-04-02T18:52:55.982Z,1.97
2023-04-02T18:55:28.828Z,2.10
2023-04-02T18:58:09.453Z,2.30
2023-04-02T19:00:40.074Z,2.43
2023-04-02T19:03:35.942Z,2.20
2023-04-02T19:06:19.129Z,2.20
2023-04-02T19:08:48.302Z,2.23
2023-04-02T19:11:21.920Z,2.90
2023-04-02T19:13:51.328Z,2.30
2023-04-02T19:16:24.125Z,2.30
2023-04-02T19:19:05.050Z,2.20
2023-04-02T19:21:31.695Z,2.37
2023-04-02T19:24:20.852Z,2.17
2023-04-02T19:26:59.351Z,2.33
2023-04-02T19:29:55.502Z,2.50
2023-04-02T19:33:00.604Z,2.00
2023-04-02T19:35:31.478Z,2.60
2023-04-02T19:38:12.845Z,2.13
2023-04-02T19:40:52.734Z,2.60
2023-04-02T19:43:19.563Z,2.57
2023-04-02T19:45:50.451Z,2.20
2023-04-02T19:48:20.360Z,2.70
2023-04-02T19:50:48.906Z,2.37
2023-04-02T19:53:16.052Z,3.10
2023-04-02T19:55:43.446Z,2.63
2023-04-02T19:58:19.822Z,2.87
2023-04-02T20:00:47.112Z,2.33
2023-04-02T20:03:13.832Z,2.33
2023-04-02T20:05:40.784Z,2.27
2023-04-02T20:08:07.589Z,2.00
2023-04-02T20:10:35.049Z,2.53
2023-04-02T20:13:02.032Z,2.10
2023-04-02T20:15:28.771Z,1.90
2023-04-02T20:17:55.606Z,2.40
2023-04-02T20:20:22.444Z,2.60
2023-04-02T20:22:49.372Z,2.13
2023-04-02T20:25:16.345Z,2.33
2023-04-02T20:27:43.120Z,2.23
2023-04-02T20:30:10.587Z,2.60
2023-04-02T20:32:38.120Z,2.40
2023-04-02T20:35:06.056Z,2.50
2023-04-02T20:37:32.958Z,2.40
2023-04-02T20:40:02.630Z,2.50
2023-04-02T20:42:29.604Z,2.63
2023-04-02T20:44:56.613Z,2.80
2023-04-02T20:47:23.421Z,2.40
2023-04-02T20:49:50.665Z,2.40
2023-04-02T20:52:17.476Z,2.17
2023-04-02T20:54:44.294Z,2.40
2023-04-02T20:57:11.100Z,2.30
2023-04-02T20:59:37.876Z,2.50
2023-04-02T21:02:04.607Z,2.50
2023-04-02T21:04:31.519Z,2.13
2023-04-02T21:06:58.468Z,2.20
2023-04-02T21:09:25.264Z,2.23
2023-04-02T21:11:52.290Z,2.07
2023-04-02T21:14:19.307Z,2.47
2023-04-02T21:16:46.290Z,2.10
2023-04-02T21:19:13.365Z,2.20
2023-04-02T21:21:40.649Z,2.37
2023-04-02T21:24:08.996Z,2.43
2023-04-02T21:26:37.929Z,2.43
2023-04-02T21:29:05.768Z,2.30
2023-04-02T21:31:38.065Z,2.30
2023-04-02T21:34:06.595Z,2.40
2023-04-02T21:36:36.313Z,2.30
2023-04-02T21:39:09.054Z,2.63
2023-04-02T21:41:38.273Z,2.77
2023-04-02T21:44:08.357Z,2.10
2023-04-02T21:46:38.623Z,2.60
2023-04-02T21:49:08.154Z,2.43
2023-04-02T21:51:36.458Z,2.50
2023-04-02T21:54:03.668Z,2.50
2023-04-02T21:56:36.029Z,2.40
2023-04-02T21:59:04.321Z,2.20
2023-04-02T22:01:33.891Z,2.30
2023-04-02T22:04:06.463Z,2.60
2023-04-02T22:06:43.774Z,2.70
2023-04-02T22:09:13.600Z,2.37
2023-04-02T22:11:46.504Z,2.60
2023-04-02T22:14:13.945Z,2.50
2023-04-02T22:16:41.293Z,2.43
2023-04-02T22:19:11.378Z,2.27
2023-04-02T22:21:39.029Z,2.43
2023-04-02T22:24:09.293Z,2.70
2023-04-02T22:26:36.692Z,2.33
2023-04-02T22:29:04.545Z,2.60
2023-04-02T22:31:33.378Z,2.47
2023-04-02T22:34:01.078Z,2.50
2023-04-02T22:36:29.190Z,2.57
2023-04-02T22:38:57.165Z,2.80
2023-04-02T22:41:27.501Z,2.20
2023-04-02T22:43:56.228Z,3.20
2023-04-02T22:46:24.111Z,2.60
2023-04-02T22:48:50.928Z,2.70
2023-04-02T22:51:20.741Z,2.53
2023-04-02T22:53:49.445Z,2.90
2023-04-02T22:56:18.693Z,2.93
2023-04-02T22:58:46.027Z,2.70
2023-04-02T23:01:29.090Z,2.67
2023-04-02T23:03:56.401Z,2.47
2023-04-02T23:06:24.207Z,2.47
2023-04-02T23:08:51.348Z,2.70
2023-04-02T23:11:21.977Z,2.73
2023-04-02T23:13:50.408Z,2.60
2023-04-02T23:16:18.355Z,2.83
2023-04-02T23:18:48.686Z,2.40
2023-04-02T23:21:17.087Z,2.60
2023-04-02T23:23:44.435Z,2.60
2023-04-02T23:26:16.383Z,2.33
2023-04-02T23:28:44.103Z,2.33
2023-04-02T23:31:18.255Z,2.30
2023-04-02T23:33:45.435Z,2.50
2023-04-02T23:36:23.173Z,2.47
2023-04-02T23:38:55.782Z,2.50
2023-04-02T23:41:24.829Z,2.10
2023-04-02T23:43:51.787Z,2.33
2023-04-02T23:46:18.792Z,2.80
2023-04-02T23:48:46.776Z,2.73
2023-04-02T23:51:14.085Z,2.33
2023-04-02T23:53:40.881Z,2.10
2023-04-02T23:56:07.743Z,2.47
2023-04-02T23:58:34.575Z,2.00
